Gila Bend, Arizona
Current Conditions -  °F | °C
As of 9:55 AM on Thursday 23 Oct 2014 (Local Time) from KGXF Reporting Station
Clear Clear  
Wind Chill: 81°   Ceiling: Unl
Heat Index: 81°   Visibility: 10mi
Dew Point: 48°   Wind: 3mph
Humidity: 32%   Direction: 60°ENE
Pressure: 30.03"   Gusts: NA
Location:  32.95°N, 112.72°W
Report Text: KGXF 231655Z 06003KT 10SM CLR 27/09 A3003 RMK SLP158
Loading
Personal Weather Stations






























Interactive Weather Map New forecast layout! Learn more

10-Day Weather Forecast

Advertisements
Track Severe Weather on mobile